RJNT(METAR)
05/21 18:00
METAR RJNT 210900Z 28007KT 9999 FEW080 BKN/// 20/08 Q1004 RMK 1AC080
A2967=
戻る
トップページへ戻る
IMOC Co,.Ltd.